Time;durP1;ratioP1;P1;durP2;ratioP2;P2;SDS_P1;SDS_P2;PMS_P1;PMS_P2;Temp;Humidity;BMP_temperature;BMP_pressure;BME280_temperature;BME280_humidity;BME280_pressure;Samples;Min_cycle;Max_cycle;Signal;HPM_P1;HPM_P2
2024/02/04 00:03:19;;;;;;;;;;;;;;;17.47;45.08;100349.19;10251273;28;1895;-69
2024/02/04 00:08:17;;;;;;;;;;;;;;;17.47;45.44;100343.94;10250692;28;861;-69
2024/02/04 00:13:12;;;;;;;;;;;;;;;17.46;45.34;100342.22;10251057;28;872;-69
2024/02/04 00:18:08;;;;;;;;;;;;;;;17.45;45.25;100344.00;10250269;28;779;-69
2024/02/04 00:23:04;;;;;;;;;;;;;;;17.44;45.19;100334.34;10251229;28;1959;-69
2024/02/04 00:28:00;;;;;;;;;;;;;;;17.44;45.31;100333.50;10250516;28;862;-69
2024/02/04 00:33:02;;;;;;;;;;;;;;;17.42;45.28;100320.38;10249706;28;1552;-69
2024/02/04 00:37:58;;;;;;;;;;;;;;;17.43;45.14;100329.16;10249926;28;799;-69
2024/02/04 00:42:54;;;;;;;;;;;;;;;17.42;45.27;100325.66;10249885;28;782;-69
2024/02/04 00:47:50;;;;;;;;;;;;;;;17.43;45.25;100337.91;10249086;28;827;-69
2024/02/04 00:52:46;;;;;;;;;;;;;;;17.41;45.29;100336.22;10249430;28;902;-69
2024/02/04 00:57:42;;;;;;;;;;;;;;;17.41;45.20;100329.19;10248786;28;921;-69
2024/02/04 01:02:37;;;;;;;;;;;;;;;17.42;45.32;100327.41;10249212;28;834;-69
2024/02/04 01:07:33;;;;;;;;;;;;;;;17.40;45.29;100322.19;10248976;28;1906;-69
2024/02/04 01:12:29;;;;;;;;;;;;;;;17.40;45.19;100309.03;10247625;28;822;-69
2024/02/04 01:17:26;;;;;;;;;;;;;;;17.40;45.16;100305.53;10248062;28;802;-69
2024/02/04 01:22:27;;;;;;;;;;;;;;;17.39;45.20;100319.59;10247862;28;826;-69
2024/02/04 01:27:22;;;;;;;;;;;;;;;17.40;45.12;100316.06;10247693;28;1926;-69
2024/02/04 01:32:18;;;;;;;;;;;;;;;17.38;45.16;100345.09;10246235;28;1299;-69
2024/02/04 01:37:14;;;;;;;;;;;;;;;17.37;45.23;100330.22;10246126;28;834;-69
2024/02/04 01:42:10;;;;;;;;;;;;;;;17.37;45.31;100321.41;10245122;28;891;-69
2024/02/04 01:47:06;;;;;;;;;;;;;;;17.36;45.21;100323.19;10245696;28;1918;-69
2024/02/04 01:52:02;;;;;;;;;;;;;;;17.36;45.21;100314.44;10245110;28;923;-69
2024/02/04 01:56:58;;;;;;;;;;;;;;;17.34;45.25;100305.72;10245303;28;883;-69
2024/02/04 02:01:54;;;;;;;;;;;;;;;17.35;45.32;100302.19;10244552;28;865;-69
2024/02/04 02:06:50;;;;;;;;;;;;;;;17.34;45.19;100301.31;10244937;28;1918;-69
2024/02/04 02:11:46;;;;;;;;;;;;;;;17.32;45.18;100292.59;10244387;28;850;-69
2024/02/04 02:16:42;;;;;;;;;;;;;;;17.33;45.24;100288.19;10244105;28;921;-69
2024/02/04 02:21:39;;;;;;;;;;;;;;;17.31;45.59;100275.06;10243913;28;894;-69
2024/02/04 02:26:38;;;;;;;;;;;;;;;17.30;45.48;100274.19;10243636;28;1894;-69
2024/02/04 02:31:34;;;;;;;;;;;;;;;17.31;45.33;100282.97;10206226;28;1093629;-69
2024/02/04 02:36:30;;;;;;;;;;;;;;;17.30;45.39;100276.84;10244406;28;1009;-69
2024/02/04 02:41:26;;;;;;;;;;;;;;;17.28;45.48;100278.66;10245097;28;867;-69
2024/02/04 02:46:22;;;;;;;;;;;;;;;17.28;45.29;100278.66;10244095;28;1914;-69
2024/02/04 02:51:18;;;;;;;;;;;;;;;17.28;45.29;100268.13;10245217;28;866;-69
2024/02/04 02:56:14;;;;;;;;;;;;;;;17.27;45.33;100271.66;10245163;28;878;-69
2024/02/04 03:01:09;;;;;;;;;;;;;;;17.27;45.35;100271.66;10244478;28;886;-69
2024/02/04 03:06:06;;;;;;;;;;;;;;;17.25;45.38;100268.22;10244410;28;1952;-69
2024/02/04 03:11:02;;;;;;;;;;;;;;;17.26;45.28;100283.09;10243368;28;1757;-69
2024/02/04 03:15:58;;;;;;;;;;;;;;;17.23;45.41;100277.94;10243000;28;940;-69
2024/02/04 03:20:54;;;;;;;;;;;;;;;17.22;45.25;100278.88;10244061;28;846;-69
2024/02/04 03:25:50;;;;;;;;;;;;;;;17.20;45.34;100267.50;10245414;28;1902;-69
2024/02/04 03:30:45;;;;;;;;;;;;;;;17.18;45.30;100269.31;10243991;28;1293;-69
2024/02/04 03:35:41;;;;;;;;;;;;;;;17.19;45.25;100263.16;10243719;28;834;-69
2024/02/04 03:40:37;;;;;;;;;;;;;;;17.17;45.30;100269.38;10243907;28;842;-69
2024/02/04 03:45:33;;;;;;;;;;;;;;;17.15;45.30;100266.78;10243425;28;1970;-69
2024/02/04 03:50:29;;;;;;;;;;;;;;;17.13;45.45;100271.25;10243421;28;824;-69
2024/02/04 03:55:25;;;;;;;;;;;;;;;17.12;45.24;100264.25;10243912;28;855;-69
2024/02/04 04:00:21;;;;;;;;;;;;;;;17.12;45.31;100255.50;10244250;28;864;-69
2024/02/04 04:05:17;;;;;;;;;;;;;;;17.12;45.46;100264.25;10243034;28;1894;-69
2024/02/04 04:10:12;;;;;;;;;;;;;;;17.14;45.22;100277.41;10243671;28;881;-69
2024/02/04 04:15:08;;;;;;;;;;;;;;;17.14;45.21;100272.97;10243591;28;933;-69
2024/02/04 04:20:04;;;;;;;;;;;;;;;17.14;45.28;100269.50;10242832;28;778;-69
2024/02/04 04:25:00;;;;;;;;;;;;;;;17.14;45.33;100266.88;10243829;28;1955;-69
2024/02/04 04:29:56;;;;;;;;;;;;;;;17.14;45.29;100258.97;10250183;28;1137;-69
2024/02/04 04:34:54;;;;;;;;;;;;;;;17.14;45.43;100266.88;10249792;28;893;-69
2024/02/04 04:39:50;;;;;;;;;;;;;;;17.15;45.32;100266.78;10249467;28;867;-69
2024/02/04 04:44:46;;;;;;;;;;;;;;;17.15;45.36;100258.88;10249205;28;1918;-69
2024/02/04 04:49:42;;;;;;;;;;;;;;;17.15;45.34;100266.78;10249434;28;905;-69
2024/02/04 04:54:38;;;;;;;;;;;;;;;17.16;45.45;100263.28;10249797;28;857;-69
2024/02/04 04:59:36;;;;;;;;;;;;;;;17.18;45.40;100257.94;10248201;28;878;-69
2024/02/04 05:04:31;;;;;;;;;;;;;;;17.21;45.26;100231.47;10248554;28;1937;-69
2024/02/04 05:09:27;;;;;;;;;;;;;;;17.23;45.33;100242.84;10248445;28;847;-69
2024/02/04 05:14:23;;;;;;;;;;;;;;;17.23;45.50;100240.19;10248128;28;767;-69
2024/02/04 05:19:19;;;;;;;;;;;;;;;17.26;45.45;100246.22;10247471;28;919;-69
2024/02/04 05:24:15;;;;;;;;;;;;;;;17.29;45.33;100251.41;10247821;28;1894;-69
2024/02/04 05:29:11;;;;;;;;;;;;;;;17.30;45.27;100249.63;10248001;28;1369;-69
2024/02/04 05:34:07;;;;;;;;;;;;;;;17.32;45.20;100245.19;10246983;28;1047;-69
2024/02/04 05:39:02;;;;;;;;;;;;;;;17.34;45.13;100247.75;10246254;28;902;-69
2024/02/04 05:43:58;;;;;;;;;;;;;;;17.34;45.11;100235.44;10246943;28;1978;-69
2024/02/04 05:48:54;;;;;;;;;;;;;;;17.35;45.11;100237.16;10246938;28;758;-69
2024/02/04 05:53:50;;;;;;;;;;;;;;;17.37;45.25;100231.81;10246693;28;877;-69
2024/02/04 05:58:46;;;;;;;;;;;;;;;17.38;45.11;100228.31;10246787;28;803;-69
2024/02/04 06:03:42;;;;;;;;;;;;;;;17.37;45.38;100232.72;10245962;28;1918;-69
2024/02/04 06:08:38;;;;;;;;;;;;;;;17.39;45.21;100236.13;10246110;28;903;-69
2024/02/04 06:13:34;;;;;;;;;;;;;;;17.41;45.06;100233.47;10245245;28;929;-70
2024/02/04 06:18:30;;;;;;;;;;;;;;;17.41;45.25;100236.09;10245795;28;879;-69
2024/02/04 06:23:26;;;;;;;;;;;;;;;17.42;45.25;100230.78;10246297;28;1964;-73
2024/02/04 06:28:22;;;;;;;;;;;;;;;17.44;45.31;100222.81;10245388;28;866;-70
2024/02/04 06:33:18;;;;;;;;;;;;;;;17.46;45.38;100210.44;10246372;28;1375;-69
2024/02/04 06:38:14;;;;;;;;;;;;;;;17.47;45.32;100217.44;10244997;28;962;-70
2024/02/04 06:43:10;;;;;;;;;;;;;;;17.47;45.19;100207.75;10244529;28;1985;-69
2024/02/04 06:48:05;;;;;;;;;;;;;;;17.51;45.38;100211.16;10244495;28;793;-69
2024/02/04 06:53:01;;;;;;;;;;;;;;;17.48;45.31;100182.28;10244627;28;866;-69
2024/02/04 06:57:57;;;;;;;;;;;;;;;17.48;45.17;100183.13;10244488;28;1007;-69
2024/02/04 07:02:53;;;;;;;;;;;;;;;17.48;45.38;100177.84;10244950;28;871;-69
2024/02/04 07:07:52;;;;;;;;;;;;;;;17.50;45.38;100161.97;10244154;28;1902;-69
2024/02/04 07:12:48;;;;;;;;;;;;;;;17.52;45.26;100160.16;10244004;28;1005;-69
2024/02/04 07:17:44;;;;;;;;;;;;;;;17.53;45.35;100169.78;10243631;28;1016;-69
2024/02/04 07:22:40;;;;;;;;;;;;;;;17.53;45.55;100186.47;10243944;28;950;-69
2024/02/04 07:27:35;;;;;;;;;;;;;;;17.53;45.48;100190.88;10243808;28;1902;-69
2024/02/04 07:32:31;;;;;;;;;;;;;;;17.56;45.31;100203.94;10243148;28;1103;-69
2024/02/04 07:37:27;;;;;;;;;;;;;;;17.55;45.45;100199.56;10243671;28;895;-69
2024/02/04 07:42:23;;;;;;;;;;;;;;;17.55;45.39;100193.44;10243495;28;933;-69
2024/02/04 07:47:22;;;;;;;;;;;;;;;17.55;45.60;100188.16;10243323;28;1973;-69
2024/02/04 07:52:18;;;;;;;;;;;;;;;17.58;45.43;100193.31;10243398;28;869;-71
2024/02/04 07:57:14;;;;;;;;;;;;;;;17.59;45.54;100189.81;10243292;28;1067;-69
2024/02/04 08:02:10;;;;;;;;;;;;;;;17.59;45.40;100190.66;10247878;28;834;-68
2024/02/04 08:07:05;;;;;;;;;;;;;;;17.58;45.64;100178.41;10251305;28;1905;-68
2024/02/04 08:12:01;;;;;;;;;;;;;;;17.60;45.82;100179.19;10250053;28;832;-69
2024/02/04 08:16:57;;;;;;;;;;;;;;;17.60;45.88;100191.50;10251772;28;838;-68
2024/02/04 08:21:53;;;;;;;;;;;;;;;17.62;45.65;100205.50;10250882;28;965;-71
2024/02/04 08:26:49;;;;;;;;;;;;;;;17.61;45.80;100194.09;10250652;28;1957;-69
2024/02/04 08:31:45;;;;;;;;;;;;;;;17.61;45.86;100187.97;10248257;28;1328;-68
2024/02/04 08:36:41;;;;;;;;;;;;;;;17.63;45.75;100187.00;10249843;28;916;-68
2024/02/04 08:41:37;;;;;;;;;;;;;;;17.63;45.81;100187.00;10250114;28;869;-68
2024/02/04 08:46:32;;;;;;;;;;;;;;;17.63;45.69;100191.41;10249151;28;1910;-68
2024/02/04 08:51:28;;;;;;;;;;;;;;;17.63;45.74;100184.38;10248974;28;1019;-68
2024/02/04 08:56:24;;;;;;;;;;;;;;;17.65;45.60;100185.16;10248121;28;1059;-69
2024/02/04 09:01:20;;;;;;;;;;;;;;;17.65;45.78;100174.59;10249036;28;783;-70
2024/02/04 09:06:16;;;;;;;;;;;;;;;17.65;45.64;100177.25;10248367;28;1890;-68
2024/02/04 09:11:18;;;;;;;;;;;;;;;17.65;45.83;100185.16;10248222;28;921;-68
2024/02/04 09:16:14;;;;;;;;;;;;;;;17.65;45.52;100192.22;10248210;28;857;-68
2024/02/04 09:21:10;;;;;;;;;;;;;;;17.66;45.69;100197.44;10247816;28;1063;-68
2024/02/04 09:26:06;;;;;;;;;;;;;;;17.67;45.62;100204.41;10247552;28;1894;-68
2024/02/04 09:31:03;;;;;;;;;;;;;;;17.67;45.51;100195.66;10246518;28;1603;-68
2024/02/04 09:35:59;;;;;;;;;;;;;;;17.68;45.52;100184.19;10247160;28;878;-69
2024/02/04 09:40:55;;;;;;;;;;;;;;;17.68;45.55;100182.44;10247571;28;811;-69
2024/02/04 09:45:50;;;;;;;;;;;;;;;17.68;45.73;100179.78;10246960;28;1971;-68
2024/02/04 09:50:46;;;;;;;;;;;;;;;17.67;45.54;100185.97;10246391;28;969;-68
2024/02/04 09:55:42;;;;;;;;;;;;;;;17.67;45.45;100196.50;10246236;28;873;-71
2024/02/04 10:00:38;;;;;;;;;;;;;;;17.68;45.39;100190.34;10246047;28;904;-68
2024/02/04 10:05:34;;;;;;;;;;;;;;;17.68;45.67;100189.44;10246101;28;1957;-69
2024/02/04 10:10:32;;;;;;;;;;;;;;;17.69;45.68;100194.69;10245853;28;854;-68
2024/02/04 10:15:28;;;;;;;;;;;;;;;17.70;45.71;100198.19;10244813;28;976;-68
2024/02/04 10:20:24;;;;;;;;;;;;;;;17.70;45.65;100177.94;10244758;28;976;-68
2024/02/04 10:25:19;;;;;;;;;;;;;;;17.71;45.75;100184.94;10244562;28;1898;-67
2024/02/04 10:30:15;;;;;;;;;;;;;;;17.72;45.59;100181.38;10244526;28;1237;-72
2024/02/04 10:35:11;;;;;;;;;;;;;;;17.73;45.50;100172.56;10244659;28;953;-67
2024/02/04 10:40:07;;;;;;;;;;;;;;;17.73;45.72;100169.91;10244517;28;908;-68
2024/02/04 10:45:03;;;;;;;;;;;;;;;17.78;45.77;100184.72;10244572;28;1918;-68
2024/02/04 10:49:59;;;;;;;;;;;;;;;17.77;45.84;100175.09;10242755;28;1094;-67
2024/02/04 10:54:55;;;;;;;;;;;;;;;17.75;45.81;100165.44;10244741;28;858;-67
2024/02/04 10:59:51;;;;;;;;;;;;;;;17.75;45.89;100170.72;10244161;28;872;-68
2024/02/04 11:04:47;;;;;;;;;;;;;;;17.77;45.74;100169.84;10244011;28;1901;-70
2024/02/04 11:09:43;;;;;;;;;;;;;;;17.77;45.73;100167.19;10243126;28;1016;-67
2024/02/04 11:14:39;;;;;;;;;;;;;;;17.78;45.81;100174.19;10243741;28;799;-68
2024/02/04 11:19:35;;;;;;;;;;;;;;;17.78;45.75;100172.41;10243522;28;814;-68
2024/02/04 11:24:31;;;;;;;;;;;;;;;17.78;45.96;100169.75;10243449;28;1936;-67
2024/02/04 11:29:27;;;;;;;;;;;;;;;17.78;45.86;100171.53;10244058;28;1365;-67
2024/02/04 11:34:23;;;;;;;;;;;;;;;17.79;45.75;100160.97;10243597;28;838;-68
2024/02/04 11:39:22;;;;;;;;;;;;;;;17.80;45.80;100153.94;10251756;28;823;-67
2024/02/04 11:44:18;;;;;;;;;;;;;;;17.81;45.61;100145.94;10251314;28;1973;-68
2024/02/04 11:49:13;;;;;;;;;;;;;;;17.81;45.63;100135.38;10252132;28;932;-67
2024/02/04 11:54:09;;;;;;;;;;;;;;;17.80;45.66;100117.00;10251756;28;955;-67
2024/02/04 11:59:05;;;;;;;;;;;;;;;17.81;45.60;100116.06;10250321;28;1095;-67
2024/02/04 12:04:01;;;;;;;;;;;;;;;17.80;45.54;100115.22;10250681;28;1894;-67
2024/02/04 12:08:57;;;;;;;;;;;;;;;17.81;45.53;100111.66;10250013;28;838;-67
2024/02/04 12:13:53;;;;;;;;;;;;;;;17.82;45.80;100104.63;10250993;28;811;-69
2024/02/04 12:18:49;;;;;;;;;;;;;;;17.79;45.75;100102.06;10250789;28;912;-67
2024/02/04 12:23:45;;;;;;;;;;;;;;;17.79;45.75;100104.69;10249999;28;1898;-68
2024/02/04 12:28:40;;;;;;;;;;;;;;;17.80;45.94;100090.66;10250478;28;866;-68
2024/02/04 12:33:37;;;;;;;;;;;;;;;17.80;45.85;100086.22;10250527;28;1144;-68
2024/02/04 12:38:33;;;;;;;;;;;;;;;17.82;45.79;100086.19;10249445;28;894;-68
2024/02/04 12:43:29;;;;;;;;;;;;;;;17.83;45.82;100093.16;10249960;28;1918;-68
2024/02/04 12:48:27;;;;;;;;;;;;;;;17.83;45.85;100072.06;10249269;28;794;-67
2024/02/04 12:53:23;;;;;;;;;;;;;;;17.86;45.81;100061.38;10248892;28;1001;-68
2024/02/04 12:58:19;;;;;;;;;;;;;;;17.87;45.82;100058.72;10248823;28;1000;-69
2024/02/04 13:03:15;;;;;;;;;;;;;;;17.88;46.01;100047.22;10249270;28;862;-68
2024/02/04 13:08:11;;;;;;;;;;;;;;;17.90;46.10;100048.03;10248219;28;1890;-69
2024/02/04 13:13:07;;;;;;;;;;;;;;;17.88;46.15;100041.97;10248791;28;830;-68
2024/02/04 13:18:03;;;;;;;;;;;;;;;17.88;46.11;100033.19;10248301;28;875;-68
2024/02/04 13:23:00;;;;;;;;;;;;;;;17.88;45.96;100030.56;10247815;28;938;-68
2024/02/04 13:27:56;;;;;;;;;;;;;;;17.88;46.09;100034.03;10247544;28;1898;-68
2024/02/04 13:32:52;;;;;;;;;;;;;;;17.87;45.97;100032.34;10246734;28;1220;-68
2024/02/04 13:37:49;;;;;;;;;;;;;;;17.88;45.98;100038.47;10247863;28;964;-68
2024/02/04 13:42:46;;;;;;;;;;;;;;;17.87;46.02;100063.97;10246969;28;798;-68
2024/02/04 13:47:42;;;;;;;;;;;;;;;17.88;45.97;100070.13;10246723;28;1906;-68
2024/02/04 13:52:38;;;;;;;;;;;;;;;17.87;46.10;100073.69;10246626;28;850;-68
2024/02/04 13:57:33;;;;;;;;;;;;;;;17.86;46.23;100056.13;10245745;28;928;-68
2024/02/04 14:02:29;;;;;;;;;;;;;;;17.86;46.02;100050.84;10243025;28;1101;-68
2024/02/04 14:07:25;;;;;;;;;;;;;;;17.87;46.17;100037.63;10246073;28;1883;-68
2024/02/04 14:12:21;;;;;;;;;;;;;;;17.87;46.18;100042.88;10245872;28;929;-68
2024/02/04 14:17:17;;;;;;;;;;;;;;;17.89;46.08;100040.19;10246111;28;795;-68
2024/02/04 14:22:13;;;;;;;;;;;;;;;17.86;46.17;100030.59;10245672;28;798;-68
2024/02/04 14:27:09;;;;;;;;;;;;;;;17.88;46.22;100030.56;10245336;28;1902;-68
2024/02/04 14:32:05;;;;;;;;;;;;;;;17.87;46.22;100032.34;10245466;28;1236;-68
2024/02/04 14:37:01;;;;;;;;;;;;;;;17.87;46.31;100048.16;10244931;28;787;-67
2024/02/04 14:41:56;;;;;;;;;;;;;;;17.88;46.22;100049.00;10244859;28;917;-68
2024/02/04 14:46:52;;;;;;;;;;;;;;;17.87;46.25;100048.16;10244577;28;1918;-68
2024/02/04 14:51:48;;;;;;;;;;;;;;;17.88;46.29;100044.59;10244064;28;996;-68
2024/02/04 14:56:46;;;;;;;;;;;;;;;17.88;46.35;100031.41;10243770;28;920;-68
2024/02/04 15:01:43;;;;;;;;;;;;;;;17.88;46.08;100038.47;10243972;28;889;-67
2024/02/04 15:06:39;;;;;;;;;;;;;;;17.88;46.23;100043.75;10243941;28;1961;-67
2024/02/04 15:11:35;;;;;;;;;;;;;;;17.89;46.10;100032.25;10244058;28;1016;-68
2024/02/04 15:16:31;;;;;;;;;;;;;;;17.88;46.24;100038.47;10243874;28;856;-68
2024/02/04 15:21:27;;;;;;;;;;;;;;;17.88;46.29;100034.03;10243847;28;804;-68
2024/02/04 15:26:24;;;;;;;;;;;;;;;17.88;46.41;100043.75;10243844;28;1961;-68
2024/02/04 15:31:20;;;;;;;;;;;;;;;17.87;46.25;100048.16;10243538;28;2080;-68
2024/02/04 15:36:16;;;;;;;;;;;;;;;17.89;46.09;100045.44;10243131;28;894;-68
2024/02/04 15:41:12;;;;;;;;;;;;;;;17.90;46.28;100036.63;10243669;28;882;-67
2024/02/04 15:46:10;;;;;;;;;;;;;;;17.90;46.15;100031.38;10244014;28;1978;-68
2024/02/04 15:51:05;;;;;;;;;;;;;;;17.90;46.28;100024.31;10243373;28;902;-67
2024/02/04 15:56:01;;;;;;;;;;;;;;;17.90;46.12;100021.66;10243408;28;823;-68
2024/02/04 16:00:57;;;;;;;;;;;;;;;17.89;46.09;100008.53;10243299;28;1023;-67
2024/02/04 16:05:53;;;;;;;;;;;;;;;17.88;46.11;100002.41;10243353;28;1965;-68
2024/02/04 16:10:52;;;;;;;;;;;;;;;17.90;46.27;100008.47;10244113;28;882;-67
2024/02/04 16:15:48;;;;;;;;;;;;;;;17.89;46.24;100013.81;10242953;28;1181;-67
2024/02/04 16:20:44;;;;;;;;;;;;;;;17.88;46.20;100005.03;10243158;28;882;-67
2024/02/04 16:25:40;;;;;;;;;;;;;;;17.92;46.07;100000.50;10250928;28;1906;-67
2024/02/04 16:30:35;;;;;;;;;;;;;;;17.90;46.24;99987.38;10250757;28;1092;-67
2024/02/04 16:35:31;;;;;;;;;;;;;;;17.90;46.30;99990.03;10249837;28;878;-67
2024/02/04 16:40:27;;;;;;;;;;;;;;;17.91;46.15;99985.59;10250024;28;781;-67
2024/02/04 16:45:23;;;;;;;;;;;;;;;17.90;46.29;99979.47;10249455;28;1906;-67
2024/02/04 16:50:19;;;;;;;;;;;;;;;17.90;46.31;99976.84;10250004;28;856;-68
2024/02/04 16:55:15;;;;;;;;;;;;;;;17.91;46.47;99975.91;10249099;28;878;-68
2024/02/04 17:00:12;;;;;;;;;;;;;;;17.91;46.25;99981.19;10248974;28;913;-68
2024/02/04 17:05:11;;;;;;;;;;;;;;;17.91;46.39;99975.06;10248394;28;1951;-68
2024/02/04 17:10:08;;;;;;;;;;;;;;;17.91;46.29;99970.63;10248906;28;878;-68
2024/02/04 17:15:04;;;;;;;;;;;;;;;17.91;46.43;99967.13;10248740;28;838;-68
2024/02/04 17:20:06;;;;;;;;;;;;;;;17.93;46.41;99963.53;10248857;28;869;-68
2024/02/04 17:25:02;;;;;;;;;;;;;;;17.94;46.14;99945.91;10247223;28;1949;-68
2024/02/04 17:30:00;;;;;;;;;;;;;;;17.91;46.35;99946.03;10248287;28;1306;-68
2024/02/04 17:34:58;;;;;;;;;;;;;;;17.93;46.13;99950.34;10246756;28;803;-68
2024/02/04 17:39:54;;;;;;;;;;;;;;;17.92;46.43;99953.91;10246663;28;783;-68
2024/02/04 17:44:51;;;;;;;;;;;;;;;17.94;46.29;99948.56;10246407;28;1922;-68
2024/02/04 17:49:47;;;;;;;;;;;;;;;17.93;46.24;99957.41;10246861;28;811;-68
2024/02/04 17:54:43;;;;;;;;;;;;;;;17.92;46.44;99945.09;10246704;28;850;-68
2024/02/04 17:59:43;;;;;;;;;;;;;;;17.93;46.35;99941.56;10246996;28;832;-68
2024/02/04 18:04:38;;;;;;;;;;;;;;;17.94;46.05;99943.28;10246129;28;1898;-68
2024/02/04 18:09:38;;;;;;;;;;;;;;;17.94;46.32;99949.41;10246065;28;774;-68
2024/02/04 18:14:34;;;;;;;;;;;;;;;17.93;46.49;99955.59;10246395;28;823;-68
2024/02/04 18:19:30;;;;;;;;;;;;;;;17.95;46.35;99971.38;10245584;28;810;-68
2024/02/04 18:24:26;;;;;;;;;;;;;;;17.94;46.10;99959.94;10246268;28;1898;-68
2024/02/04 18:29:24;;;;;;;;;;;;;;;17.95;46.34;99966.97;10243953;28;1228;-67
2024/02/04 18:34:19;;;;;;;;;;;;;;;17.97;46.27;99974.78;10245850;28;833;-68
2024/02/04 18:39:15;;;;;;;;;;;;;;;17.94;46.26;99978.41;10246307;28;877;-68
2024/02/04 18:44:14;;;;;;;;;;;;;;;17.95;46.12;99981.94;10244303;28;1974;-68
2024/02/04 18:49:10;;;;;;;;;;;;;;;17.96;46.32;99983.63;10245261;28;783;-68
2024/02/04 18:54:07;;;;;;;;;;;;;;;17.96;46.31;99984.50;10245292;28;794;-68
2024/02/04 18:59:03;;;;;;;;;;;;;;;17.97;46.21;99982.69;10244396;28;922;-68
2024/02/04 19:03:59;;;;;;;;;;;;;;;17.97;46.37;99977.44;10244715;28;1915;-68
2024/02/04 19:08:55;;;;;;;;;;;;;;;17.98;46.21;99957.22;10243559;28;917;-68
2024/02/04 19:13:51;;;;;;;;;;;;;;;17.97;46.21;99953.69;10243918;28;912;-68
2024/02/04 19:18:47;;;;;;;;;;;;;;;17.98;46.30;99947.50;10243872;28;843;-68
2024/02/04 19:23:43;;;;;;;;;;;;;;;17.98;46.25;99963.34;10244316;28;2329;-68
2024/02/04 19:28:39;;;;;;;;;;;;;;;17.98;46.23;99950.16;10243555;28;1079;-68
2024/02/04 19:33:35;;;;;;;;;;;;;;;17.99;46.25;99940.47;10244588;28;1094;-68
2024/02/04 19:38:31;;;;;;;;;;;;;;;17.99;46.28;99941.31;10243396;28;882;-68
2024/02/04 19:43:29;;;;;;;;;;;;;;;17.99;46.31;99945.72;10242784;28;1342;-68
2024/02/04 19:48:25;;;;;;;;;;;;;;;17.98;46.26;99936.97;10244008;28;1967;-68
2024/02/04 19:53:21;;;;;;;;;;;;;;;18.01;46.34;99949.16;10243228;28;767;-68
2024/02/04 19:58:17;;;;;;;;;;;;;;;17.99;46.42;99945.72;10246849;28;850;-67
2024/02/04 20:03:14;;;;;;;;;;;;;;;18.00;46.42;99942.16;10250986;28;779;-68
2024/02/04 20:08:09;;;;;;;;;;;;;;;17.99;46.26;99936.03;10250618;28;1894;-68
2024/02/04 20:13:05;;;;;;;;;;;;;;;17.99;46.30;99941.31;10250625;28;885;-68
2024/02/04 20:18:01;;;;;;;;;;;;;;;17.99;46.21;99935.19;10250415;28;818;-68
2024/02/04 20:22:57;;;;;;;;;;;;;;;18.01;46.37;99943.91;10250083;28;943;-67
2024/02/04 20:27:53;;;;;;;;;;;;;;;18.00;46.32;99932.50;10249977;28;1953;-68
2024/02/04 20:32:49;;;;;;;;;;;;;;;18.06;46.12;99937.50;10250120;28;1167;-68
2024/02/04 20:37:45;;;;;;;;;;;;;;;18.00;46.48;99945.69;10249082;28;900;-68
2024/02/04 20:42:41;;;;;;;;;;;;;;;17.98;46.23;99934.34;10249457;28;870;-68
2024/02/04 20:47:37;;;;;;;;;;;;;;;17.98;46.22;99939.59;10249182;28;1969;-68
2024/02/04 20:52:33;;;;;;;;;;;;;;;17.98;46.15;99934.34;10249124;28;818;-68
2024/02/04 20:57:29;;;;;;;;;;;;;;;17.99;46.41;99936.03;10248872;28;838;-68
2024/02/04 21:02:25;;;;;;;;;;;;;;;17.97;46.32;99935.22;10248743;28;834;-68
2024/02/04 21:07:21;;;;;;;;;;;;;;;17.96;46.32;99933.53;10248095;28;1886;-71
2024/02/04 21:12:16;;;;;;;;;;;;;;;17.95;46.26;99919.50;10248569;28;848;-68
2024/02/04 21:17:12;;;;;;;;;;;;;;;17.96;46.48;99941.44;10248201;28;849;-68
2024/02/04 21:22:08;;;;;;;;;;;;;;;17.94;46.49;99938.00;10247979;28;914;-68
2024/02/04 21:27:04;;;;;;;;;;;;;;;17.93;46.38;99936.28;10247152;28;1957;-68
2024/02/04 21:32:00;;;;;;;;;;;;;;;17.94;46.53;99932.72;10247427;28;1228;-68
2024/02/04 21:36:56;;;;;;;;;;;;;;;17.93;46.34;99928.38;10248107;28;997;-68
2024/02/04 21:41:51;;;;;;;;;;;;;;;17.92;46.38;99935.44;10247258;28;751;-68
2024/02/04 21:46:47;;;;;;;;;;;;;;;17.92;46.29;99937.19;10246937;28;1965;-68
2024/02/04 21:51:43;;;;;;;;;;;;;;;17.89;46.36;99939.97;10247339;28;906;-68
2024/02/04 21:56:39;;;;;;;;;;;;;;;17.88;46.31;99923.28;10246647;28;847;-67
2024/02/04 22:01:35;;;;;;;;;;;;;;;17.87;46.33;99937.41;10246659;28;851;-68
2024/02/04 22:06:31;;;;;;;;;;;;;;;17.86;46.29;99934.81;10245485;28;1894;-68
2024/02/04 22:11:27;;;;;;;;;;;;;;;17.84;46.33;99920.84;10246756;28;773;-68
2024/02/04 22:16:23;;;;;;;;;;;;;;;17.82;46.40;99934.09;10246670;28;876;-68
2024/02/04 22:21:19;;;;;;;;;;;;;;;17.80;46.33;99928.03;10245923;28;883;-68
2024/02/04 22:26:15;;;;;;;;;;;;;;;17.79;46.31;99942.13;10246431;28;1898;-67
2024/02/04 22:31:11;;;;;;;;;;;;;;;17.78;46.37;99945.63;10246249;28;1389;-67
2024/02/04 22:36:07;;;;;;;;;;;;;;;17.73;46.53;99945.81;10245219;28;969;-67
2024/02/04 22:41:03;;;;;;;;;;;;;;;17.70;46.48;99934.53;10246060;28;794;-67
2024/02/04 22:45:59;;;;;;;;;;;;;;;17.66;46.55;99928.56;10245566;28;1898;-67
2024/02/04 22:50:55;;;;;;;;;;;;;;;17.64;46.38;99942.72;10244841;28;877;-67
2024/02/04 22:55:51;;;;;;;;;;;;;;;17.63;46.55;99944.50;10244083;28;907;-67
2024/02/04 23:00:49;;;;;;;;;;;;;;;17.61;46.48;99934.94;10244608;28;768;-68
2024/02/04 23:05:44;;;;;;;;;;;;;;;17.57;46.27;99926.25;10244633;28;1955;-68
2024/02/04 23:10:42;;;;;;;;;;;;;;;17.55;46.38;99932.50;10244359;28;771;-67
2024/02/04 23:15:38;;;;;;;;;;;;;;;17.54;46.30;99942.19;10245134;28;835;-67
2024/02/04 23:20:34;;;;;;;;;;;;;;;17.50;46.69;99944.13;10243563;28;838;-67
2024/02/04 23:25:30;;;;;;;;;;;;;;;17.48;46.53;99945.94;10244745;28;1901;-67
2024/02/04 23:30:26;;;;;;;;;;;;;;;17.46;46.54;99949.56;10245733;28;1558;-67
2024/02/04 23:35:22;;;;;;;;;;;;;;;17.44;46.62;99954.88;10252420;28;846;-68
2024/02/04 23:40:18;;;;;;;;;;;;;;;17.41;46.51;99948.88;10252072;28;873;-67
2024/02/04 23:45:15;;;;;;;;;;;;;;;17.40;46.62;99957.72;10252356;28;1918;-68
2024/02/04 23:50:10;;;;;;;;;;;;;;;17.37;46.56;99937.59;10251653;28;899;-67
2024/02/04 23:55:08;;;;;;;;;;;;;;;17.35;46.70;99935.94;10251572;28;830;-67
